Impacts METAR Board INFO
IDs:

KPIT - Pittsburgh Intl, PA, US

Updated at: 1304 UTC 20 Jan 2018
Potential Impact None Slight Moderate High
Time20/01Z 20/02Z 20/03Z 20/04Z 20/05Z 20/06Z 20/07Z 20/08Z 20/09Z 20/10Z 20/11Z 20/12Z 20/13Z
VIS10 10 10 10 10 10 10 10 10 10 10 10 10
CIG-- -- -- -- -- -- -- -- -- 250 250 -- 250
CoverFEWCLRFEWCLRCLRCLRFEWFEWSCTBKNBKNSCTBKN
FltCatVFRVFRVFRVFRVFRVFRVFRVFRVFRVFRVFRVFRVFR
WX--------------------------
WDir210200210210220220220220220220220220220
WSpd6 6 9 11 12 12 11 11 10 10 10 9 12
WGst-- -- -- -- -- -- 20 20 -- -- -- 17 17
Raw hourly METARs
KPIT 200051Z 21006KT 10SM FEW250 02/M08 A3000 RMK AO2 SLP179 T00171078
KPIT 200151Z 20006KT 10SM CLR 01/M08 A2998 RMK AO2 SLP175 T00111078
KPIT 200251Z 21009KT 10SM FEW250 01/M08 A2997 RMK AO2 SLP170 T00111078 58009
KPIT 200351Z 21011KT 10SM CLR 02/M08 A2997 RMK AO2 SLP168 T00171083
KPIT 200451Z 22012KT 10SM CLR 02/M08 A2995 RMK AO2 SLP161 T00221078 400391056
KPIT 200551Z 22012KT 10SM CLR 03/M07 A2994 RMK AO2 SLP155 T00281072 10028 20011 58011
KPIT 200651Z 22011G20KT 10SM FEW250 03/M08 A2995 RMK AO2 SLP158 T00281078
KPIT 200751Z 22011G20KT 10SM FEW250 02/M07 A2995 RMK AO2 SLP159 T00221067
KPIT 200851Z 22010KT 10SM SCT250 03/M06 A2996 RMK AO2 SLP160 T00281061 51006
KPIT 200951Z 22010KT 10SM BKN250 03/M06 A2996 RMK AO2 SLP162 T00281056
KPIT 201051Z 22010KT 10SM BKN250 02/M06 A2997 RMK AO2 SLP167 T00221056
KPIT 201151Z 22009G17KT 10SM SCT250 02/M06 A2999 RMK AO2 SLP173 T00221056 10028 20022 53012
KPIT 201251Z 22012G17KT 10SM BKN250 02/M05 A3000 RMK AO2 SLP175 T00221050